International TAF

Brunei, China, Hong Kong, Malaysia, Philippines, Taiwan

The availability of aerodrome forecasts from overseas locations is dependent on the regular international exchange of data. Some locations may at times be absent. If this problem persists, please advise webav@bom.gov.au

 back to top

ZSPD 05/12/2021 UTC

TAF ZSPD 050303Z 0506/0606 10004MPS 6000 SCT030 TX16/0506Z
TN07/0521Z

WIDD 05/12/2021 UTC

TAF WIDD 050500Z 0506/0606 01010KT 9999 SCT014
PROB40 TEMPO 0506/0509 5000 -RA BKN014

WAMM 05/12/2021 UTC

TAF WAMM 050500Z 0506/0612 VRB03KT 8000 RA SCT018

WBSB 05/12/2021 UTC

TAF WBSB 050500Z 0506/0612 26010KT 9999 FEW016 FEW017CB
TEMPO 0512/0516 6000 -TSRA
BECMG 0514/0516 17003KT FEW004 BKN150

WBKK 05/12/2021 UTC

TAF WBKK 050500Z 0506/0606 24008KT 9999 FEW014
TEMPO 0508/0512 5000 TSRA FEW010 FEW016CB SCT030
BECMG 0510/0512 11005KT

WBGG 05/12/2021 UTC

TAF WBGG 050500Z 0506/0606 32004KT 9999 SCT020
TEMPO 0506/0509 3000 TSRA FEW015CB BKN016
TEMPO 0509/0513 6000 -RA FEW005 FEW015CB

VHHH 04/12/2021 UTC

TAF VHHH 042300Z 0500/0606 04010KT CAVOK TX22/0506Z TX23/0606Z
TN17/0522Z BECMG 0502/0504 33010KT BECMG 0508/0510 04010KT TEMPO
0510/0515 VRB05KT

VMMC 04/12/2021 UTC

TAF VMMC 042300Z 0500/0606 02008KT CAVOK

ZGSZ 05/12/2021 UTC

TAF ZGSZ 050316Z 0506/0606 32004MPS 8000 FEW040 TX23/0606Z
TN15/0522Z BECMG 0510/0511 05004MPS

RCTP 05/12/2021 UTC

TAF RCTP 050500Z 0506/0612 04013KT 9999 FEW015 BKN032
TEMPO 0506/0512 02018KT
TEMPO 0512/0518 08010KT 5000 RA FEW010 BKN018 BKN040
TEMPO 0518/0524 FEW010 BKN020 BKN040
TEMPO 0604/0610 05018KT

RCKH 05/12/2021 UTC

TAF RCKH 050500Z 0506/0612 35005KT 9999 FEW015 BKN032
TEMPO 0506/0512 30010KT
TEMPO 0520/0602 5000 HZ FEW010 BKN020
TEMPO 0604/0610 30010KT

ZGGG 05/12/2021 UTC

TAF ZGGG 050302Z 0506/0606 04003MPS CAVOK TX23/0507Z TN10/0522Z

ZBAA 05/12/2021 UTC

TAF ZBAA 050302Z 0506/0606 18004MPS CAVOK TX11/0507Z TNM02/0521Z
BECMG 0514/0515 34007G14MPS

ZSSS 05/12/2021 UTC

TAF ZSSS 050303Z 0506/0606 11003MPS 6000 SCT030 TX17/0506Z
TN08/0522Z

ZBTJ 05/12/2021 UTC

TAF ZBTJ 050309Z 0506/0606 22003MPS 3000 BR NSC TX11/0507Z
TN00/0517Z BECMG 0512/0513 2000 BECMG 0515/0516 1100 BECMG 0518/0519
35005MPS BECMG 0520/0521 3000

ZBYN 05/12/2021 UTC

TAF ZBYN 050302Z 0506/0606 21004MPS 6000 NSC TX10/0507Z
TNM08/0522Z

ZSHC 05/12/2021 UTC

TAF ZSHC 050300Z 0506/0606 09003MPS 3000 BR NSC TX17/0506Z
TN05/0521Z

ZSOF 05/12/2021 UTC

TAF ZSOF 050301Z 0506/0606 17003MPS 3000 HZ NSC TX17/0606Z
TN02/0522Z

ZWWW 05/12/2021 UTC

TAF ZWWW 050302Z 0506/0606 36002MPS 2000 BR NSC TXM03/0508Z
TNM08/0523Z BECMG 0513/0514 18002MPS BECMG 0602/0603 36002MPS 1100

ZYTL 05/12/2021 UTC

TAF ZYTL 050303Z 0506/0606 23004MPS 5000 BR NSC TX14/0506Z
TN06/0521Z BECMG 0600/0601 36005G12MPS

RPLL 04/12/2021 UTC

TAF RPLL 042300Z 0500/0606 10008KT 9999 FEW025 SCT100 TX31/0506Z
TN23/0521Z TEMPO 0500/0506 08012KT SCT023 BKN100 TEMPO
0506/0512 11014KT SCT023 BKN100

RPVM 04/12/2021 UTC

TAF RPVM 042300Z 0500/0606 01010KT 9999 FEW020 SCT300 TEMPO
0500/0506 03015KT FEW020 BKN300 TEMPO 0506/0512 02013KT FEW018CB
BKN100

RPMZ 04/12/2021 UTC

TAF RPMZ 042300Z 0500/0524 26005KT 9999 FEW017 BKN300 TEMPO
0500/0506 06010KT FEW016CB FEW017 BKN090

Australian International

The availability of aerodrome forecasts from overseas locations is dependent on the regular international exchange of data. Some locations may at times be absent. If this problem persists, please advise webav@bom.gov.au

 back to top

YMML 05/12/2021 UTC

TAF YMML 050506Z 0506/0612
18008KT CAVOK
FM051100 27006KT CAVOK
FM051400 33006KT CAVOK
FM051700 01015G25KT CAVOK
FM052100 01022G38KT CAVOK
FM060100 01018G30KT CAVOK
FM060300 01015G25KT 9999 -SHRA SCT040
FM061100 29008KT CAVOK
RMK FM051800 MOD TURB BLW 5000FT TL060100
T 20 17 14 12 Q 1018 1018 1018 1016
TAF3

YSSY 05/12/2021 UTC

TAF YSSY 050216Z 0503/0606
14018KT 9999 SCT025 BKN035
FM051000 12008KT 9999 BKN035
FM052200 08008KT 9999 SCT035
FM060100 05010KT 9999 SCT040
RMK
T 20 19 18 18 Q 1021 1021 1022 1022
TAF3

YBBN 05/12/2021 UTC

TAF YBBN 050505Z 0506/0612
13012KT 9999 -SHRA SCT030
FM051100 18007KT 9999 -SHRA SCT020 BKN035
FM052300 12012KT 9999 NSW SCT030
RMK
T 24 22 22 21 Q 1013 1014 1016 1014
TAF3

YSCB 05/12/2021 UTC

TAF YSCB 050206Z 0503/0600
10012KT 9999 BKN045
FM050800 08012KT 9999 SCT025
FM052300 07008KT CAVOK
RMK
T 16 16 13 10 Q 1021 1021 1022 1024

YBCS 05/12/2021 UTC

TAF YBCS 050508Z 0506/0606
12016KT 9999 FEW040
FM051000 17007KT 9999 -SHRA SCT025
FM052300 11014KT 9999 NSW FEW030
RMK
T 32 28 26 25 Q 1006 1007 1008 1007
TAF3

YBAS 05/12/2021 UTC

TAF YBAS 050502Z 0506/0606
13018KT CAVOK
FM050800 12018KT CAVOK
FM051500 09011KT CAVOK
PROB30 TEMPO 0506/0515 VRB25G45KT 9000 TS SCT100CB
RMK
T 35 31 25 22 Q 1009 1009 1011 1012

YBMA 05/12/2021 UTC

TAF YBMA 050443Z 0506/0518
03010KT CAVOK
FM050900 15008KT CAVOK
PROB30 TEMPO 0506/0512 VRB30G45KT 4000 TSRA SCT030 FEW110CB
RMK
T 38 34 29 26 Q 1006 1007 1008 1008

YPAD 05/12/2021 UTC

TAF YPAD 050506Z 0506/0612
22014KT CAVOK
FM050900 15012KT CAVOK
FM051500 05005KT CAVOK
FM052300 25008KT CAVOK
FM060300 22017KT CAVOK
FM060900 18010KT CAVOK
RMK
T 22 21 17 16 Q 1015 1014 1015 1013
TAF3

YPDN 05/12/2021 UTC

TAF YPDN 050504Z 0506/0612
30014KT 9999 FEW030 SCT045
FM051200 VRB04KT 9999 SCT020
FM052300 33009KT 9999 SCT025
FM060200 31005KT CAVOK
PROB30 TEMPO 0506/0510 VRB25G40KT 1000 TSRA BKN010 SCT030CB
PROB30 TEMPO 0517/0522 VRB25G40KT 1000 TSRA BKN010 SCT030CB
PROB30 TEMPO 0603/0609 VRB25G40KT 1000 TSRA BKN010 SCT040CB
RMK
T 32 30 28 28 Q 1004 1005 1007 1007
TAF3

YPTN 05/12/2021 UTC

TAF YPTN 050501Z 0506/0606
21014KT CAVOK
FM050800 01006KT CAVOK
FM051600 34005KT 9999 FEW012 SCT025
TEMPO 0506/0515 VRB25G40KT 1000 TSRA SCT030 SCT060CB
PROB30 TEMPO 0602/0606 VRB25G40KT 1000 TSRA SCT030 SCT060CB
RMK
T 34 32 26 26 Q 1003 1004 1008 1007

YPPH 05/12/2021 UTC

TAF YPPH 050459Z 0506/0612
22016KT CAVOK
BECMG 0512/0514 12012KT CAVOK
FM060200 12015G25KT CAVOK
FM060400 12014KT CAVOK
RMK FM051500 MOD TURB BLW 3000FT TL052300
T 32 30 25 22 Q 1013 1012 1013 1014
TAF3

YPLM 05/12/2021 UTC

TAF YPLM 050500Z 0506/0606
26014KT CAVOK
FM051400 22012KT CAVOK
RMK
T 36 33 25 23 Q 1006 1005 1007 1008

YCAR 05/12/2021 UTC

TAF YCAR 050313Z 0504/0512
25012KT CAVOK
FM050900 21012KT CAVOK
RMK
T 31 29 28 Q 1007 1005 1005

YPCC 05/12/2021 UTC

TAF YPCC 050508Z 0506/0606
14014KT 9999 -SHRA SCT023 BKN040
RMK
T 28 27 27 27 Q 1010 1009 1010 1011

YPPD 05/12/2021 UTC

TAF YPPD 050501Z 0506/0606
28020KT CAVOK
FM051400 25012KT CAVOK
FM052200 28010KT CAVOK
RMK
T 41 36 33 32 Q 1000 1000 1001 1002

YBTL 05/12/2021 UTC

TAF YBTL 050506Z 0506/0606
06014KT 9999 FEW035
FM051000 13008KT 9999 SCT025
FM060100 07016KT 9999 FEW030
RMK
T 30 28 27 26 Q 1007 1008 1010 1009

YMHB 05/12/2021 UTC

TAF YMHB 050222Z 0503/0600
13010KT CAVOK
FM050500 06013KT CAVOK
FM051000 34007KT CAVOK
FM051800 01010KT CAVOK
FM052300 01015KT CAVOK
RMK
T 18 18 16 14 Q 1021 1020 1019 1021
TAF3

YPXM 04/12/2021 UTC

TAF YPXM 042302Z 0500/0600
VRB05KT 9999 -SHRA SCT010
TEMPO 0500/0600 2000 SHRA BKN001 SCT015TCU
PROB30 TEMPO 0500/0505 VRB20G35KT 0100 +TSRA BKN001 SCT015CB
RMK
T 25 26 25 25 Q 1013 1012 1010 1009

New Zealand

The availability of aerodrome forecasts from overseas locations is dependent on the regular international exchange of data. Some locations may at times be absent. If this problem persists, please advise webav@bom.gov.au

 back to top

NZAA 05/12/2021 UTC

TAF NZAA 050508Z 0506/0606 04015G25KT 9999 -SHRA FEW030 SCT040
BECMG 0508/0510 02012KT
PROB30 0514/0519 BKN012
PROB40 TEMPO 0601/0604 6000 SHRA

NZWN 05/12/2021 UTC

TAF NZWN 050508Z 0506/0606 35020G35KT 9999 -SHRA BKN025
TEMPO 0507/0515 6000 SHRA BKN010
BECMG 0512/0514 34015KT
FM051500 18020G35KT 6000 RA BKN012
TEMPO 0515/0520 2500 +RA BKN006
BECMG 0523/0601 9999 -RA BKN016
TEMPO 0601/0605 6000 SHRA BKN010

NZCH 05/12/2021 UTC

TAF NZCH 050511Z 0506/0606 28008KT 9999 -SHRA FEW030 SCT060
FM050700 19020G30KT 6000 RA BKN012
FM050900 19015KT 9999 -SHRA BKN020
TEMPO 0509/0518 6000 SHRA BKN012
BECMG 0604/0606 16005KT

YLHI 04/12/2021 UTC

TAF AMD YLHI 042344Z 0423/0600
13014KT 9999 FEW020 SCT025
FM050800 12014KT 9999 -SHRA BKN025
INTER 0510/0600 4000 SHRA BKN010
RMK
T 23 24 23 21 Q 1014 1014 1014 1016

YSNF 04/12/2021 UTC

TAF YSNF 042342Z 0500/0600
05012KT 9999 BKN008
FM051000 07010KT 9999 BKN006
RMK
T 24 23 22 21 Q 1014 1014 1014 1015

Indonesia, Malaysia, Myanmar, Singapore, Thailand, Vietnam

The availability of aerodrome forecasts from overseas locations is dependent on the regular international exchange of data. Some locations may at times be absent. If this problem persists, please advise webav@bom.gov.au

 back to top

WADA

TAF not available.

WAAA 05/12/2021 UTC

TAF WAAA 050500Z 0506/0612 33010KT 5000 RA FEW017CB SCT018
BECMG 0511/0513 11004KT

WIII 05/12/2021 UTC

TAF WIII 050500Z 0506/0612 24007KT 7000 SCT019
BECMG 0510/0512 VRB03KT
BECMG 0513/0515 3500 BR
BECMG 0522/0524 30007KT 8000 NSW
TEMPO 0606/0609 5000 -TSRA FEW018CB

WIHH 05/12/2021 UTC

TAF WIHH 050500Z 0506/0606 27007KT 4000 -RA BKN017 BECMG 0510/0512 20005KT 5000 HZ SCT018

WIMM 05/12/2021 UTC

TAF WIMM 050500Z 0506/0606 33008KT 8000 -RA BKN017
BECMG 0510/0512 4000 HZ SCT017
BECMG 0601/0603 35008KT 9999 NSW

WIPP 05/12/2021 UTC

TAF WIPP 050500Z 0506/0606 34007KT 9999 SCT010
TEMPO 0521/0524 4000 HZ

WIKD

TAF not available.

WARR 05/12/2021 UTC

TAF WARR 050500Z 0506/0606 27010KT 9999 SCT020
PROB30 TEMPO 0508/0512 4000 TSRA SCT018CB
BECMG 0512/0514 25005KT 5000 HZ FEW020
BECMG 0600/0602 26010KT 9999 NSW

WADD 05/12/2021 UTC

TAF WADD 050500Z 0506/0606 28010KT 9999 SCT016
TEMPO 0510/0514 5000 TSRA FEW014CB BKN014
TEMPO 0519/0523 5000 TSRA FEW014CB BKN014

WRRA

TAF not available.

WALL 05/12/2021 UTC

TAF WALL 050500Z 0506/0612 23005KT 9999 FEW020 BECMG 0517/0519 32003KT PROB40 TEMPO
0519/0522 8000 -RA FEW017CB SCT018 BECMG 0601/0603 23005KT

WSSS 05/12/2021 UTC

TAF WSSS 050500Z 0506/0612 01012KT 9999 FEW015 SCT020

WSAP 05/12/2021 UTC

TAF WSAP 050500Z 0506/0612 01012KT 9999 FEW015 SCT020

WMKK 05/12/2021 UTC

TAF WMKK 050500Z 0506/0612 27006KT 9999 FEW018
PROB40 TEMPO 0508/0512 5000 TSRA FEW017CB SCT018
PROB30 TEMPO 0606/0610 24006KT 5000 TSRA FEW017CB SCT018

WMSA 05/12/2021 UTC

TAF WMSA 050500Z 0506/0606 25006KT 9999 FEW018
PROB40 TEMPO 0508/0512 5000 TSRA FEW017CB SCT018

WMKP 05/12/2021 UTC

TAF WMKP 050500Z 0506/0606 05010KT 9999 FEW020

WMKJ 05/12/2021 UTC

TAF WMKJ 050500Z 0506/0606 35006KT 9999 FEW018
PROB40 TEMPO 0508/0512 5000 TSRA FEW016CB SCT018

WMKD 05/12/2021 UTC

TAF WMKD 050500Z 0506/0606 VRB03KT 9999 SCT020

WMKB 05/12/2021 UTC

TAF WMKB 050500Z 0506/0606 32007KT 8000 FEW020
BECMG 0510/0512 03005KT FEW025

VTBD 04/12/2021 UTC

TAF VTBD 042300Z 0500/0606 02005KT 9999 FEW030

VTBS 04/12/2021 UTC

TAF VTBS 042300Z 0500/0606 03005KT 9999 FEW030

VTBU 04/12/2021 UTC

TAF VTBU 042300Z 0500/0524 02010KT 9999 FEW025

VTCC 04/12/2021 UTC

TAF VTCC 042300Z 0500/0606 34005KT 9999 SCT035 BECMG 0502/0504
18005KT BECMG 0509/0511 28005KT BECMG 0514/0516 34005KT

VTSP 04/12/2021 UTC

TAF VTSP 042300Z 0500/0606 08010KT 9999 FEW020

VTSS 04/12/2021 UTC

TAF VTSS 042300Z 0500/0524 30003KT 9999 SCT020 BKN100 TEMPO 0500/0503
4000 RA BECMG 0503/0505 04010KT BECMG 0512/0514 30003KT

VVTS 04/12/2021 UTC

TAF VVTS 042300Z 0500/0606 01008KT 9999 SCT017 SCT040

VDPP 04/12/2021 UTC

TAF VDPP 042300Z 0500/0518 03008KT 9999 SCT017

VVNB 04/12/2021 UTC

TAF VVNB 042300Z 0500/0524 VRB02KT 4500 BR NSC BECMG 0500/0502 6000
NSW BECMG 0521/0523 4000 BR

VYYY 04/12/2021 UTC

TAF VYYY 042300Z 0500/0524 11007KT 8000 NSC BECMG 0500/0502 00000KT
4000 BR TEMPO 0506/0512 11008G18KT 6000 HZ

South America

The availability of aerodrome forecasts from overseas locations is dependent on the regular international exchange of data. Some locations may at times be absent. If this problem persists, please advise webav@bom.gov.au

 back to top

SAEZ 04/12/2021 UTC

TAF SAEZ 042300Z 0500/0524 12005KT 9999 SCT020 TX26/0518Z
TN17/0508Z
TEMPO 0504/0509 09015KT 5000 SHRA BKN010 OVC030
BECMG 0510/0512 09010KT 7000 DZRA OVC010
TEMPO 0511/0516 5000 TSRA OVC015 FEW050CB
BECMG 0518/0520 12015G25KT CAVOK

SAVC 05/12/2021 UTC

TAF SAVC 042300Z 0500/0524 05010KT CAVOK TX26/0519Z TN15/0511Z BECMG
0501/0503 25010KT BECMG 0514/0516 05012KT TEMPO 0516/0520 05020KT

SCIE 05/12/2021 UTC

TAF SCIE 050428Z 0506/0606 21004KT CAVOK TX25/0519Z TN12/0510Z BECMG
0516/0517 23012KT BECMG 0602/0604 22005KT

SACO 04/12/2021 UTC

TAF SACO 042300Z 0500/0524 34005KT 9999 BKN050 TX31/0519Z
TN18/0509Z
TEMPO 0508/0511 BKN030
BECMG 0512/0515 14010KT

SCIP 05/12/2021 UTC

TAF SCIP 050430Z 0506/0606 03004KT 9999 FEW020 SCT040
TN18/0513Z TX25/0519Z
TEMPO 0507/0517 02004KT 5000 SHRA BKN010 BKN025
BECMG 0602/0604 35004KT 7000 -SHRA BKN017 BKN025

SAZM 05/12/2021 UTC

TAF SAZM 0506/0606 09010KT 9999 SCT010 BKN030 TX18/0518Z
TN12/0510Z
BECMG 0510/0512 11010KT SCT030
BECMG 0602/0604 BKN007

SAME 04/12/2021 UTC

TAF SAME 042300Z 0500/0524 05005KT 9999 SCT010 SCT020 SCT100
TX27/0520Z TN10/0510Z
BECMG 0503/0505 18005KT PROB30
TEMPO 0509/0512 VRB02KT 5000 BR BKN010 BKN020
BECMG 0514/0516 14005KT 9999 SCT030

SUMU 04/12/2021 UTC

TAF SUMU 042330Z 0500/0524 12010KT 9999 SCT020 BKN080 TX22/0518Z
TN16/0509Z BECMG 0502/0504 04010KT TEMPO 0510/0518 5000 SHRA BKN015
BKN060

SAZN 05/12/2021 UTC

TAF SAZN 042300Z 0500/0524 VRB03KT CAVOK
TX31/0519Z TN13/0509Z
BECMG 0506/0508
BECMG 0518/1520 07010KT FEW045

SCTE 05/12/2021 UTC

TAF SCTE 050417Z 0506/0606 18007KT CAVOK
TN07/0510Z TX21/0519Z
TEMPO 0507/0512 BKN010
BECMG 0514/0516 17018KT
BECMG 0600/0602 18007KT

SCCI 05/12/2021 UTC

TAF SCCI 050405Z 0506/0606 26010KT 9999 FEW045
TN06/0506Z TX15/0519Z
BECMG 0509/0511 27022G35KT
PROB40 TEMPO 0512/0521 9000 SCT020 BKN030
BECMG 0521/0523 24010KT
BECMG 0604/0606 30010KT

SAWG 05/12/2021 UTC

TAF SAWG 050500Z 0506/0606 24015G30KT CAVOK TX20/0519Z TN08/0509Z
BECMG 0509/0511 23010KT

SAAR 05/12/2021 UTC

TAF SAAR 0506/0606 14005KT 9999 FEW025 BKN060 TX30/0519Z
TN18/0509Z
PROB30 0507/0509 5000 BR
BECMG 0512/0515 11010KT 9999 SCT030
BECMG 0518/0520 16010KT CAVOK

SAZS 05/12/2021 UTC

TAF SAZS 0506/0606 VRB03KT CAVOK TX28/0519Z TN07/0509Z
BECMG 0515/0518 29010KT 9999 FEW045

SCEL 05/12/2021 UTC

TAF SCEL 050428Z 0506/0606 VRB02KT CAVOK TX35/0519Z TN14/0510Z BECMG
0515/0517 18008KT BECMG 0518/0520 21015KT BECMG 0602/0604
15004KT

SAWH 05/12/2021 UTC

TAF SAWH 050500Z 0506/0606 32008KT 9999 BKN035 TX12/0518Z
TN03/0510Z
BECMG 0509/0511 9000 RA SCT020 BKN040
BECMG 0515/0517 25020G30KT -SHRA BKN020 SCT050

Guam, Japan, Korea

The availability of aerodrome forecasts from overseas locations is dependent on the regular international exchange of data. Some locations may at times be absent. If this problem persists, please advise webav@bom.gov.au

 back to top

PGUA 05/12/2021 UTC

TAF PGUA 050200Z 0502/0608 06012G18KT 9999 SCT015 QNH2966INS
BECMG 0517/0518 09009KT 9999 SCT015 QNH2969INS
TEMPO 0520/0602 11010G15KT 6000 -SHRA BKN015 TX30/0503Z
TN25/0518Z

PGUM 04/12/2021 UTC

TAF PGUM 042331Z 0500/0606 06012KT P6SM VCSH SCT016 SCT030 SCT100

PGSN 04/12/2021 UTC

TAF PGSN 042331Z 0500/0524 05012KT P6SM VCSH SCT020 SCT040 SCT100

PTRO 04/12/2021 UTC

TAF PTRO 042331Z 0500/0524 30005KT P6SM VCSH SCT015 BKN110

RJOO

05/12/2021 UTC

TAF AMD RJOO 050117Z 0501/0606 07006KT 9999 FEW025 SCT045 BECMG
0503/0505 36008KT BECMG 0600/0603 07009KT

RJOB 04/12/2021 UTC

TAF RJOB 042305Z 0500/0606 05005KT 9999 FEW030

RJGG 04/12/2021 UTC

TAF RJGG 042308Z 0500/0606 34010KT 9999 FEW030 BECMG 0512/0515
04007KT

RJCC 05/12/2021 UTC

TAF AMD RJCC 050317Z 0503/0606 14004KT 9999 FEW020 SCT040

RJSS 05/12/2021 UTC

TAF AMD RJSS 050216Z 0502/0606 12004KT 9999 FEW020 BKN040 BECMG
0506/0508 34005KT BECMG 0600/0603 15010KT

RJFK 04/12/2021 UTC

TAF RJFK 042307Z 0500/0606 10004KT 9999 FEW030 BECMG 0512/0515
36005KT BECMG 0600/0603 11004KT

RJAA 04/12/2021 UTC

TAF RJAA 042305Z 0500/0606 01010KT 9999 FEW030 BECMG 0503/0505
08008KT BECMG 0508/0510 03006KT

RJBB 04/12/2021 UTC

TAF RJBB 042306Z 0500/0606 03010KT 9999 FEW025 SCT050

RJTT 04/12/2021 UTC

TAF RJTT 042305Z 0500/0606 04010KT 9999 FEW030 BECMG 0502/0504
08008KT BECMG 0512/0515 01010KT

RJFF 04/12/2021 UTC

TAF RJFF 042306Z 0500/0606 15007KT 9999 FEW030 SCT045 BECMG
0502/0504 03005KT BECMG 0508/0510 14005KT BECMG 0603/0606
35007KT

RJFT 05/12/2021 UTC

TAF AMD RJFT 050117Z 0501/0606 06007KT 9999 FEW030 BECMG 0502/0504
22004KT BECMG 0507/0509 06008KT BECMG 0600/0603 29003KT

RJFU 04/12/2021 UTC

TAF RJFU 042305Z 0500/0606 15006KT 9999 FEW030 SCT050 BECMG
0603/0606 31004KT

ROAH 04/12/2021 UTC

TAF ROAH 042307Z 0500/0606 05014KT 9999 FEW035 SCT045

RKSS 05/12/2021 UTC

TAF RKSS 050500Z 0506/0612 36005KT CAVOK
TNM03/0521Z TX11/0605Z
BECMG 0523/0524 09005KT

RKSI 05/12/2021 UTC

TAF RKSI 050500Z 0506/0612 16005KT CAVOK
TN00/0521Z TX10/0606Z
BECMG 0509/0510 05005KT
BECMG 0600/0602 16005KT

RKSM 04/12/2021 UTC

TAF RKSM 042300Z 0500/0606 24006KT 9999 SCT040 TX09/0506Z
TNM01/0521Z

RKPK 05/12/2021 UTC

TAF RKPK 050458Z 0505/0611 33006KT 9999 BKN030
TN03/0521Z TX14/0606Z

RKPC 05/12/2021 UTC

TAF RKPC 050500Z 0506/0612 34006KT CAVOK
TN07/0520Z TX15/0604Z
BECMG 0511/0512 19005KT
BECMG 0601/0602 34007KT 9999 SCT030
BECMG 0610/0611 19006KT

Indonesia, Pakistan, Singapore, India, Sri Lanka, United Arab Emirates

The availability of aerodrome forecasts from overseas locations is dependent on the regular international exchange of data. Some locations may at times be absent. If this problem persists, please advise webav@bom.gov.au

 back to top

WIII 05/12/2021 UTC

TAF WIII 050500Z 0506/0612 24007KT 7000 SCT019
BECMG 0510/0512 VRB03KT
BECMG 0513/0515 3500 BR
BECMG 0522/0524 30007KT 8000 NSW
TEMPO 0606/0609 5000 -TSRA FEW018CB

WSSS 05/12/2021 UTC

TAF WSSS 050500Z 0506/0612 01012KT 9999 FEW015 SCT020

VCBI 05/12/2021 UTC

TAF VCBI 050500Z 0506/0612 28007KT 9999 SCT017 TX31/0508Z
TN24/0600Z PROB30
TEMPO 0509/0516 7000 -TSRA/SHRA SCT016 FEW020CB
BECMG 0511/0513 VRB05KT

VECC 04/12/2021 UTC

TAF VECC 042300Z 0500/0606 05006KT 1200 -RA BR SCT018 OVC090
BECMG 0505/0507 2200 -RA BR
BECMG 0601/0603 1000 -RA BR
BECMG 0604/0606 2000 -RA BR

VOMM 05/12/2021 UTC

TAF VOMM 050500Z 0506/0612 23010KT 5000 HZ FEW020 SCT100
BECMG 0508/0509 10010KT 6000
BECMG 0511/0512 5000 BR/HZ
BECMG 0518/0519 VRB02KT 3000 BR
TEMPO 0600/0603 1500 BR
BECMG 0506/0507 09010KT 5000 HZ

VOTV 05/12/2021 UTC

TAF VOTV 050500Z 0506/0612

34006KT 8000 FEW015

TEMPO 0507/0511 28010KT 2500 TS RA SCT008 FEW025CB OVC080

BECMG 0512/0514 VRB02KT 3500 BR TS SCT010 FEW025CB BKN080

TEMPO 0522/0602 2000 BR SCT012 BKN080

BECMG 0603/0605 04005KT 5000 HZ FEW012 SCT080

TEMPO 0608/0612 28010KT 3500 TS RA SCT008 FEW025CB OVC080

VABB 05/12/2021 UTC

TAF VABB 050500Z 0506/0612 15007KT 2000 FU BR
BECMG 0507/0509 28009KT 2500 BR HZ FEW020 SCT100
BECMG 0513/0515 01005KT 2000 HZ FEW020 SCT100
TEMPO 0601/0606 07003KT 0500 FU BR FEW020 SCT100
BECMG 0607/0609 24008KT 3000 HZ FEW020

VAAH 04/12/2021 UTC

TAF VAAH 042300Z 0500/0606 05005KT 3000 BR HZ FEW020
BECMG 0501/0503 02005KT 1500 BR HZ FEW020 SCT080
BECMG 0504/0506 05005KT 3000 HZ FU
BECMG 0507/0509 03005KT 5000
BECMG 0513/0515 VRB03KT 3000 BR HZ FEW020
BECMG 0516/0518 03005KT NSC
BECMG 0601/0603 05005KT 1500 BR HZ
BECMG 0604/0606 07008KT 3000 HZ FU

VILK 04/12/2021 UTC

TAF VILK 042300Z 0500/0606 00000KT 1200 BR NSC
BECMG 0501/0503 0800 MIFG
BECMG 0504/0506 VRB02KT 1500 BR HZ
BECMG 0507/0509 3000 HZ
BECMG 0520/0522 00000KT 1500 BR
BECMG 0600/0602 0800 MIFG
BECMG 0604/0606 VRB02KT 2000 BR HZ

VANP 04/12/2021 UTC

TAF VANP 042300Z 0500/0606 03005KT 1500 BR FEW100
TEMPO 0500/0504 1000 MIFG
BECMG 0505/0507 07007KT 2500 HZ NSC
BECMG 0508/0510 03003KT 2500 HZ
BECMG 0512/0514 VRB03KT 2000 BR HZ FEW025 SCT100
BECMG 0518/0520 02004KT 1800 BR
BECMG 0600/0602 03004KT 1500 BR FEW020
TEMPO 0600/0602 1000 MIFG
BECMG 0604/0606 06004KT 3000 HZ

VRMM 04/12/2021 UTC

TAF VRMM 042300Z 0500/0606 29011KT 9999 FEW018TCU TEMPO 0500/0506
4000 SHRA FEW018CB

VOHS 05/12/2021 UTC

TAF VOHS 050500Z 0506/0612 34005KT 5000 HZ BR SCT015 SCT100 BECMG
0514/0516 32005KT 4000 HZ BR SCT015 TEMPO 0523/0603 VRB04KT 1500 BR
SCT010 SCT100 BECMG 0605/0606 31008KT 5000 HZ BR SCT015 SCT100

OPKC 05/12/2021 UTC

TAF OPKC 050330Z 0506/0612 34003KT 5000 HZ NSC BECMG 0518/0520
34008KT 4000 FU NSC TEMPO 0600/0604 34005KT 2500 FU NSC

OBBI 05/12/2021 UTC

TAF OBBI 050500Z 0506/0612 30010KT 9999 FEW025 BECMG 0515/0518
VRB02KT BECMG 0606/0609 18010KT

OMAA 05/12/2021 UTC

TAF OMAA 050500Z 0506/0612 26006KT 9999 FEW045
BECMG 0507/0509 32011KT
BECMG 0522/0600 24005KT
BECMG 0606/0608 31011KT

OMDB 05/12/2021 UTC

TAF OMDB 050500Z 0506/0612 18005KT 9999 FEW040
BECMG 0509/0511 33010KT
BECMG 0516/0518 10005KT
BECMG 0608/0610 29010KT

OOMS 04/12/2021 UTC

TAF OOMS 041700Z 0418/0524 26005KT 8000 NSC BECMG 0506/0508 03012KT
BECMG 0518/0520 21007KT

OMSJ 05/12/2021 UTC

TAF OMSJ 050500Z 0506/0612 17005KT 9999 FEW040
BECMG 0510/0512 34010KT
BECMG 0515/0517 12005KT
BECMG 0609/0611 29010KT

Malawi, Mauritius, South Africa, Zambia, Zimbabwe

The availability of aerodrome forecasts from overseas locations is dependent on the regular international exchange of data. Some locations may at times be absent. If this problem persists, please advise webav@bom.gov.au

 back to top

FIMP 04/12/2021 UTC

TAF COR FIMP 042315Z 0500/0606 08005KT 9999 SCT017
TEMPO 0500/0503 7000 -SHRA BKN016

FMEE 05/12/2021 UTC

TAF FMEE 050500Z 0506/0612 09018KT 9999 SCT040 BECMG 0513/0515
13008KT BECMG 0602/0604 11018G29KT

FLKK 04/12/2021 UTC

TAF FLKK 041000Z 0412/0518 08015KT 9999 SCT040
BECMG 0415/0417 06005KT CAVOK
BECMG 0420/0422 VRB03KT
BECMG 0502/0504 08005KT

FWKI 05/12/2021 UTC

TAF FWKI 050400Z 0506/0612 08014KT CAVOK BECMG 0507/0509 07012KT 9999
FEW025 BECMG 0510/0512 FEW030 FM051400 07010KT CAVOK BECMG
0606/0608 07012KT 9999 FEW025

FAOR 05/12/2021 UTC

TAF FAOR 050400Z 0506/0612 07010KT 9999 BKN010
TX19/0512Z TN15/0603Z
PROB30 TEMPO 0506/0509 -TSRA BKN005 FEW030CB
PROB40 TEMPO 0506/0510 5000 SHRA BR OVC003 FEW030TCU
PROB40 TEMPO 0510/0520 4000 TSRA BKN005 SCT025CB
FM052100 02010KT CAVOK
BECMG 0522/0524 BKN015
PROB40 TEMPO 0600/0606 4500 BR BKN007
PROB30 TEMPO 0603/0605 0800 FG BKN003
BECMG 0610/0612 CAVOK

FVHA

TAF not available.

FAWK 05/12/2021 UTC

TAF FAWK 050300Z 0504/0515 NIL

FABL 05/12/2021 UTC

TAF FABL 050400Z 0506/0606 07010KT 9999 SCT040 BKN100 TX21/0512Z
TN14/0603Z
BECMG 0508/0510 SCT030TCU TEMPO 0512/0518 5000 TSRA SCT030CB
FM052200 VRB03KT CAVOK PROB40 TEMPO 0603/0606 0800 FG NSC

FALE 05/12/2021 UTC

TAF FALE 050400Z 0506/0612 20008KT CAVOK
TX30/0609Z TN21/0603Z BECMG 0509/0511
08008KT PROB30 TEMPO 0512/0517 4000
TSRA BKN010 FEW035CB BECMG 0516/0518
02010KT FM061000 18018KT 9999 SCT020

YPCC 05/12/2021 UTC

TAF YPCC 050508Z 0506/0606
14014KT 9999 -SHRA SCT023 BKN040
RMK
T 28 27 27 27 Q 1010 1009 1010 1011

United States (includes Hawaii) and Mexican emergency/alternates

The availability of aerodrome forecasts from overseas locations is dependent on the regular international exchange of data. Some locations may at times be absent. If this problem persists, please advise webav@bom.gov.au

 back to top

PHNL 05/12/2021 UTC

TAF PHNL 050301Z 0503/0606 22008KT P6SM VCSH SCT025 SCT040 BKN060
FM051500 20012KT 6SM -SHRA SCT020 BKN040
FM052200 19015G23KT P6SM VCSH FEW025 BKN045
FM060500 20013KT 5SM SHRA BR SCT020 OVC035

PHLI 04/12/2021 UTC

TAF PHLI 042321Z 0500/0524 VRB06KT P6SM VCSH FEW025 SCT060 BKN090
FM050600 26005KT 6SM -SHRA SCT025 BKN040
FM051500 22017KT P6SM VCSH SCT025 BKN060

PHOG 05/12/2021 UTC

TAF PHOG 050135Z 0502/0524 22011KT P6SM VCSH FEW035 BKN080
FM051200 20009KT 6SM -SHRA SCT020 BKN040
FM051800 19013KT P6SM VCSH FEW025 BKN050

PHTO 05/12/2021 UTC

TAF PHTO 050314Z 0503/0524 VRB05KT 3SM -SHRA BR BKN020 OVC035
TEMPO 0503/0504 1SM SHRA BR BKN012
FM050600 VRB05KT P6SM -SHRA SCT020 BKN040
FM052000 16018KT 4SM SHRA BR SCT010 OVC030

PKMJ 04/12/2021 UTC

TAF PKMJ 042331Z 0500/0524 07016KT P6SM VCSH SCT014 SCT045 SCT110

KLAX 05/12/2021 UTC

TAF KLAX 050259Z 0503/0606 26005KT P6SM FEW015
FM050600 VRB03KT 5SM BR BKN007
FM051700 VRB03KT 6SM HZ SKC
FM052200 27008KT P6SM SKC

KONT 04/12/2021 UTC

TAF KONT 042325Z 0500/0606 25008KT 2SM HZ FEW008
FM050100 VRB04KT 5SM HZ FEW008
TEMPO 0511/0515 1/2SM FG VV002
FM052100 27008KT P6SM SKC
FM060400 VRB05KT P6SM SKC

KPMD 04/12/2021 UTC

TAF KPMD 042357Z 0500/0524 VRB03KT P6SM SKC
FM050100 21006KT P6SM SKC
FM051200 VRB03KT P6SM SKC
FM052300 26006KT P6SM SKC

KSAN 05/12/2021 UTC

TAF KSAN 050246Z 0503/0606 32005KT P6SM FEW015
FM050330 VRB04KT P6SM OVC013
FM051800 29007KT P6SM SCT015
FM060000 31004KT P6SM SKC

KLAS 05/12/2021 UTC

TAF KLAS 050237Z 0503/0606 24006KT P6SM SKC
FM051500 VRB05KT P6SM FEW250
FM060200 34008KT P6SM FEW250

KOAK 05/12/2021 UTC

TAF KOAK 050222Z 0502/0606 28007KT P6SM FEW010 BKN012
FM050800 VRB03KT 6SM BR OVC010
FM051200 36002KT 5SM BR OVC009
FM051900 29006KT P6SM FEW015
FM060400 34003KT P6SM FEW250

KSFO 05/12/2021 UTC

TAF KSFO 050300Z 0503/0606 29012KT P6SM FEW009 BKN011
FM050600 28006KT 6SM BR FEW006 OVC010
FM050900 28004KT 6SM BR FEW006 BKN009
FM051500 VRB04KT P6SM OVC010
FM051800 33003KT P6SM SCT015
FM052200 29010KT P6SM SCT250
FM060400 33004KT P6SM FEW250

KSMF 05/12/2021 UTC

TAF KSMF 050325Z 0503/0524 VRB03KT 3/4SM BR BCFG OVC002
FM050500 00000KT 1/4SM FG OVC001
FM051900 33005KT 1 1/2SM BR BKN003
FM052100 35004KT 4SM BR SKC

KSCK 05/12/2021 UTC

TAF AMD KSCK 050508Z 0505/0524 33003KT 3/4SM BR OVC002
TEMPO 0505/0506 1/2SM BCFG OVC002
FM050600 28004KT 1/4SM FG VV001
FM052000 31004KT 2SM BR OVC003
FM052200 29003KT 4SM HZ BKN250

KFAT 05/12/2021 UTC

TAF KFAT 050224Z 0502/0524 33006KT 2SM BR OVC004
FM050600 VRB03KT 1/4SM FG VV002
FM051800 13002KT 1 1/2SM BR BKN007
FM052100 17002KT 4SM HZ SCT250

KJFK 05/12/2021 UTC

TAF KJFK 050237Z 0503/0606 24009KT P6SM SCT040 SCT150 BKN200
FM050330 28011G17KT P6SM FEW040 SCT250
FM050500 31010G16KT P6SM FEW050 SCT250
FM050900 33008KT P6SM SCT150 BKN250
FM051600 VRB05KT P6SM SCT080 BKN170
FM051900 13007KT P6SM SCT060 BKN150
FM060300 13010KT P6SM SCT025 BKN100

KPHL 05/12/2021 UTC

TAF KPHL 050248Z 0503/0606 26005KT P6SM SCT250
FM050500 30005KT P6SM SCT250
FM050800 VRB03KT P6SM FEW250
FM051500 09005KT P6SM SCT200
FM051900 14005KT P6SM SCT100
FM060000 12005KT P6SM BKN100

KPIT 05/12/2021 UTC

TAF KPIT 050239Z 0503/0606 26004KT P6SM SCT250
FM050600 33003KT P6SM BKN250
FM051500 11006KT P6SM BKN200
FM052100 14008G16KT P6SM BKN050
FM060000 16009G18KT P6SM BKN040 WS020/20040KT

KDEN 05/12/2021 UTC

TAF KDEN 050257Z 0503/0606 22010KT P6SM BKN220
FM051200 22014KT P6SM SCT220
FM051500 24014G26KT P6SM SCT220
FM051900 32015G30KT P6SM SCT220
FM060000 04015G30KT P6SM SCT200
FM060300 04012KT P6SM SCT020 SCT200

KMCI 04/12/2021 UTC

TAF KMCI 042324Z 0500/0524 10007KT P6SM FEW020 FEW250
FM050800 15009KT P6SM OVC020
FM051400 19012KT P6SM OVC010
FM051900 23014G22KT P6SM SCT040

KDFW 05/12/2021 UTC

TAF KDFW 050309Z 0503/0606 28006KT P6SM BKN028 OVC035
FM051100 21008KT P6SM BKN022
TEMPO 0512/0516 BKN015
FM051700 19018KT P6SM VCSH SCT025 OVC200
FM052300 21017KT P6SM FEW030 BKN200

KAUS 05/12/2021 UTC

TAF AMD KAUS 050400Z 0504/0606 16004KT 6SM BR BKN015
FM051000 18004KT 4SM BR OVC007
FM051300 19006KT 3SM BR OVC004
FM051600 19008KT P6SM OVC015
FM051700 19010KT P6SM BKN025
FM052000 19012KT P6SM BKN035

KELP 04/12/2021 UTC

TAF KELP 042322Z 0500/0524 05004KT P6SM SCT140 BKN180 BKN250
FM050900 35005KT P6SM SCT160 OVC250
FM051600 32005KT P6SM FEW250

KIAH 05/12/2021 UTC

TAF KIAH 050308Z 0503/0606 16007KT P6SM SCT014 BKN250
FM050700 16003KT 6SM BR BKN012
FM051000 16003KT 2SM BR OVC004
TEMPO 0511/0514 3/4SM BR OVC002
FM051700 17008KT P6SM SCT015 BKN035 BKN250
FM051900 17012KT P6SM SCT025 BKN035
FM060300 16009KT P6SM BKN015

KSAT 05/12/2021 UTC

TAF KSAT 050401Z 0504/0606 VRB05KT 6SM BR BKN015
FM050500 16004KT 6SM BR BKN007 OVC012
FM050800 16005KT 2SM BR OVC003
FM051500 18006KT 4SM BR OVC007
FM051700 18008KT P6SM OVC018
FM052000 17011KT P6SM BKN035

KTUS 04/12/2021 UTC

TAF KTUS 042328Z 0500/0524 34007KT P6SM SCT140 BKN200
FM050200 VRB03KT P6SM FEW140 SCT200
FM050600 14007KT P6SM FEW200
FM051900 35006KT P6SM FEW200

MMCU 05/12/2021 UTC

TAF MMCU 050439Z 0506/0606 16005KT P6SM SCT080 BKN250
FM051800 30008KT P6SM BKN250
FM060200 20005KT P6SM SCT250

MMHO 05/12/2021 UTC

TAF MMHO 050331Z 0506/0606 24005KT P6SM SCT250
FM051900 24008KT P6SM SCT250
FM060200 00000KT P6SM SKC

MMLT 05/12/2021 UTC

TAF MMLT 050446Z 0506/0606 04005KT P6SM OVC240
FM051300 30005KT P6SM SCT070 SCT220
FM051800 07010KT P6SM BKN220
FM060300 00000KT P6SM SCT220

MMSD 05/12/2021 UTC

TAF MMSD 050446Z 0506/0606 30005KT P6SM SKC
FM051800 22010KT P6SM BKN250
FM060300 00000KT P6SM SKC

Papua New Guinea, Southwest Pacific

The availability of aerodrome forecasts from overseas locations is dependent on the regular international exchange of data. Some locations may at times be absent. If this problem persists, please advise webav@bom.gov.au

 back to top

NWWW 05/12/2021 UTC

TAF NWWW 050500Z 0506/0606 VRB02KT 9999 SCT035 BKN055 TEMPO 0506/0509
SHRA FEW025CB PROB40 TEMPO 0506/0508 VRB15KT 3000 TSRA SCT020CB
PROB40 TEMPO 0509/0518 SHRA FEW025CB TEMPO 0600/0606 2500 TSRA
SCT020CB

NFFN 04/12/2021 UTC

TAF NFFN 042301Z 0500/0524
30012KT 9999 SCT027
TEMPO 0503/0506 3000 +TSRA BKN015 SCT017CB
BECMG 0504/0506 12005KT
TEMPO 0506/0524 5000 TSRA BKN016 FEW018CB

NFNA 04/12/2021 UTC

TAF NFNA 042308Z 0500/0524
12010KT 9999 SCT020
TEMPO 0503/0506 5000 TSRA BKN015 FEW018CB
TEMPO 0506/0524 5000 SHRA BKN016

NFTF 04/12/2021 UTC

TAF NFTF 042305Z 0500/0524
09010KT 9999 SCT016
TEMPO 0500/0524 09015G25KT

NSTU 04/12/2021 UTC

TAF NSTU 042321Z 0500/0524 VRB06KT P6SM VCSH SCT015 SCT040 BKN100

NVVV 05/12/2021 UTC

TAF NVVV 050430Z 0506/0606 VRB04KT 9999 SCT020
INTER 0506/0512 8000 SHRA FEW010 BKN018 FEW025CB

NCRG 04/12/2021 UTC

TAF NCRG 042305Z 0500/0524
06008KT 9999 FEW023 SCT029 OVC060
TEMPO 0500/0504 8000 SHRA BKN018
TEMPO 0504/0524 5000 STAR BKN016 FEW018CB

NTAA 04/12/2021 UTC

TAF NTAA 042300Z 0500/0606 05013KT 9999 FEW025 BECMG 0503/0505
VRB03KT BECMG 0518/0520 05015KT

NTTG

TAF not available.

NTTO

TAF not available.

NSFA 04/12/2021 UTC

TAF NSFA 042307Z 0500/0524
05008KT 9999 FEW024 BKN100
TEMPO 0500/0506 35015G25KT 3000 TSRA BKN016 FEW018CB
TEMPO 0506/0512 5000 SHRA BKN018

ANYN

TAF not available.

AGGH 04/12/2021 UTC

TAF AGGH 042310Z 0500/0524 36010KT 9999 SCT020

PROB40 INTER 0504/0512 3000 TSSH SCT015 FEW016CB BKN025

T 31 32 28 26 Q 1004 1002 1001 1003

AGGM 04/12/2021 UTC

TAF AGGM 042310Z 0500/0524 26010KT 9999 SCT020

PROB40 INTER 0504/0512 3000 TSSH SCT015 FEW016CB BKN025

AGGN 04/12/2021 UTC

TAF AGGN 042310Z 0500/0524 25010KT 9999 SCT020

PROB40 INTER 0504/0512 4000 TSSH SCT015 FEW016CB BKN025

AYPY 04/12/2021 UTC

TAF AYPY 042145Z 0500/0524 26007KT 9999 BKN018
FM050200 24008KT 9999 -SHRA SCT018 SCT030 BKN120
INTER 0504/0509 4000 +TSRA BKN010 FEW018CB

AYNZ

TAF not available.

AYMD

TAF not available.

AYMH

TAF not available.

AYTA

TAF not available.

PKMJ 04/12/2021 UTC

TAF PKMJ 042331Z 0500/0524 07016KT P6SM VCSH SCT014 SCT045 SCT110

NGTA 04/12/2021 UTC

TAF NGTA 042308Z 0500/0524
06012KT 9999 SCT020

PTRO 04/12/2021 UTC

TAF PTRO 042331Z 0500/0524 30005KT P6SM VCSH SCT015 BKN110

YLHI 04/12/2021 UTC

TAF AMD YLHI 042344Z 0423/0600
13014KT 9999 FEW020 SCT025
FM050800 12014KT 9999 -SHRA BKN025
INTER 0510/0600 4000 SHRA BKN010
RMK
T 23 24 23 21 Q 1014 1014 1014 1016

YSNF 04/12/2021 UTC

TAF YSNF 042342Z 0500/0600
05012KT 9999 BKN008
FM051000 07010KT 9999 BKN006
RMK
T 24 23 22 21 Q 1014 1014 1014 1015

Indonesia, Timor Leste, Papua New Guinea

The availability of aerodrome forecasts from overseas locations is dependent on the regular international exchange of data. Some locations may at times be absent. If this problem persists, please advise webav@bom.gov.au

 back to top

WAAA 05/12/2021 UTC

TAF WAAA 050500Z 0506/0612 33010KT 5000 RA FEW017CB SCT018
BECMG 0511/0513 11004KT

WAMM 05/12/2021 UTC

TAF WAMM 050500Z 0506/0612 VRB03KT 8000 RA SCT018

WAMP

TAF not available.

WAJJ 05/12/2021 UTC

TAF WAJJ 050500Z 0506/0606 27008KT 9999 FEW013
TEMPO 0509/0513 5000 TSRA FEW012CB
BECMG 0515/0517 00000KT

WAPP 04/12/2021 UTC

TAF COR WAPP 042300Z 0500/0524 20010KT 9999 SCT018
BECMG 0510/0512 35007KT

WABB 05/12/2021 UTC

TAF WABB 050500Z 0506/0612 24006KT 9999 SCT018

WPDL 05/12/2021 UTC

TAF WPDL 050502Z 0506/0518
31005KT 9999 SCT020 SCT050
FM050900 24005KT 9999 SCT020
PROB30 TEMPO 0506/0510 VRB25G35KT 1000 TSRA SCT015 SCT050CB
RMK
T 27 26 26 26 Q 1005 1006 1007 1007

WATT 05/12/2021 UTC

TAF WATT 050500Z 0506/0606 31009KT 6000 BKN015
TEMPO 0506/0510 4000 TSRA FEW015CB BKN015
BECMG 0512/0514 10003KT

WIII 05/12/2021 UTC

TAF WIII 050500Z 0506/0612 24007KT 7000 SCT019
BECMG 0510/0512 VRB03KT
BECMG 0513/0515 3500 BR
BECMG 0522/0524 30007KT 8000 NSW
TEMPO 0606/0609 5000 -TSRA FEW018CB

WIHH 05/12/2021 UTC

TAF WIHH 050500Z 0506/0606 27007KT 4000 -RA BKN017 BECMG 0510/0512 20005KT 5000 HZ SCT018

WIMM 05/12/2021 UTC

TAF WIMM 050500Z 0506/0606 33008KT 8000 -RA BKN017
BECMG 0510/0512 4000 HZ SCT017
BECMG 0601/0603 35008KT 9999 NSW

WARR 05/12/2021 UTC

TAF WARR 050500Z 0506/0606 27010KT 9999 SCT020
PROB30 TEMPO 0508/0512 4000 TSRA SCT018CB
BECMG 0512/0514 25005KT 5000 HZ FEW020
BECMG 0600/0602 26010KT 9999 NSW

WADD 05/12/2021 UTC

TAF WADD 050500Z 0506/0606 28010KT 9999 SCT016
TEMPO 0510/0514 5000 TSRA FEW014CB BKN014
TEMPO 0519/0523 5000 TSRA FEW014CB BKN014

AYPY 04/12/2021 UTC

TAF AYPY 042145Z 0500/0524 26007KT 9999 BKN018
FM050200 24008KT 9999 -SHRA SCT018 SCT030 BKN120
INTER 0504/0509 4000 +TSRA BKN010 FEW018CB

AYNZ

TAF not available.

AYMH

TAF not available.

AYMD

TAF not available.

AYHK

TAF not available.

AYTK

TAF not available.

AYVN

TAF not available.

AYWK

TAF not available.

AYGA

TAF not available.

AYDU

TAF not available.

AYMS

TAF not available.

AYRB

TAF not available.

AYTB

TAF not available.

AYKI

TAF not available.

AYKT

TAF not available.

AYBK

TAF not available.

AYKM

TAF not available.

AYKY

TAF not available.

AYMO

TAF not available.

AYKV

TAF not available.

Accessing this Service

By entering this site, you acknowledge that this information is produced solely for use by the aviation industry, and you are aware that any information for the purposes of flight planning should be obtained from Airservices Australia.